KRDG/RDG METAR and TAF weather

Enter ICAO airport designator
Station Type Date Time Source
KRDG METAR 2019/11/22 00:54 UTC NOAA

KRDG 220054Z 17006KT 10SM CLR 09/02 A3004 RMK AO2 SLP179 T00890017


Station Type Date Time Source
KRDG Decoded METAR 2019/11/22 00:54 UTC NOAA

READING REGIONAL AIRPORT, PA, United States (KRDG) 40-22N 075-58W 109M
Nov 21, 2019 - 07:54 PM EST / 2019.11.22 0054 UTC
Wind: from the S (170 degrees) at 7 MPH (6 KT):0
Visibility: 10 mile(s):0
Sky conditions: clear
Temperature: 48.0 F (8.9 C)
Dew Point: 35.1 F (1.7 C)
Relative Humidity: 60%
Pressure (altimeter): 30.04 in. Hg (1017 hPa)
ob: KRDG 220054Z 17006KT 10SM CLR 09/02 A3004 RMK AO2 SLP179 T00890017
cycle: 1

Station Type Date Time Source
KRDG TAF 2019/11/21 18:22 UTC NOAA

TAF KRDG 211720Z 2118/2218 VRB04KT P6SM SCT250
FM212200 21004KT P6SM BKN200
FM221400 24006KT P6SM OVC060
FM221600 29009KT 6SM -SHRA BR OVC040

Example: see airport list